Time;durP1;ratioP1;P1;durP2;ratioP2;P2;SDS_P1;SDS_P2;PMS_P1;PMS_P2;Temp;Humidity;BMP_temperature;BMP_pressure;BME280_temperature;BME280_humidity;BME280_pressure;Samples;Min_cycle;Max_cycle;Signal;HPM_P1;HPM_P2
2024/02/23 00:01:08;;;;;;;9.10;1.47;;;;;;;;;;4879331;29;20241;-82
2024/02/23 00:03:36;;;;;;;10.27;1.30;;;;;;;;;;4879771;29;20301;-84
2024/02/23 00:06:03;;;;;;;8.47;1.10;;;;;;;;;;4879235;29;20225;-83
2024/02/23 00:08:31;;;;;;;8.60;1.50;;;;;;;;;;4878746;29;20214;-83
2024/02/23 00:10:59;;;;;;;7.63;1.73;;;;;;;;;;4879325;29;20254;-84
2024/02/23 00:13:26;;;;;;;5.00;1.30;;;;;;;;;;4879590;29;20849;-82
2024/02/23 00:15:54;;;;;;;8.73;1.90;;;;;;;;;;4879574;29;20214;-83
2024/02/23 00:18:21;;;;;;;7.90;1.50;;;;;;;;;;4878261;29;20206;-83
2024/02/23 00:20:48;;;;;;;7.80;1.37;;;;;;;;;;4879805;29;20202;-84
2024/02/23 00:23:15;;;;;;;9.50;1.60;;;;;;;;;;4878180;29;20736;-83
2024/02/23 00:25:43;;;;;;;9.40;1.70;;;;;;;;;;4879155;29;20230;-81
2024/02/23 00:28:11;;;;;;;7.40;1.37;;;;;;;;;;4879417;29;20692;-83
2024/02/23 00:30:38;;;;;;;8.00;1.47;;;;;;;;;;4879188;29;20262;-83
2024/02/23 00:33:06;;;;;;;9.57;1.50;;;;;;;;;;4879169;29;20198;-83
2024/02/23 00:35:34;;;;;;;6.20;1.23;;;;;;;;;;4878933;29;20198;-84
2024/02/23 00:38:01;;;;;;;7.20;1.43;;;;;;;;;;4886589;29;20764;-83
2024/02/23 00:40:31;;;;;;;9.50;1.37;;;;;;;;;;4897400;29;20256;-83
2024/02/23 00:43:00;;;;;;;8.63;1.03;;;;;;;;;;4897175;29;20291;-82
2024/02/23 00:45:28;;;;;;;7.50;1.00;;;;;;;;;;4897425;29;20204;-83
2024/02/23 00:47:56;;;;;;;11.03;1.60;;;;;;;;;;4897129;29;20774;-82
2024/02/23 00:50:26;;;;;;;5.70;1.60;;;;;;;;;;4897499;29;20233;-84
2024/02/23 00:52:53;;;;;;;9.70;1.40;;;;;;;;;;4897128;29;20237;-83
2024/02/23 00:55:20;;;;;;;8.97;1.33;;;;;;;;;;4897361;29;20201;-83
2024/02/23 00:57:48;;;;;;;9.83;1.60;;;;;;;;;;4896891;29;20690;-82
2024/02/23 01:00:15;;;;;;;9.10;1.23;;;;;;;;;;4897504;29;20240;-83
2024/02/23 01:02:44;;;;;;;7.93;1.30;;;;;;;;;;4896870;29;20232;-83
2024/02/23 01:05:11;;;;;;;8.43;1.13;;;;;;;;;;4896203;29;20659;-84
2024/02/23 01:07:38;;;;;;;5.27;1.10;;;;;;;;;;4896824;29;20232;-83
2024/02/23 01:10:06;;;;;;;8.70;1.30;;;;;;;;;;4897234;29;20296;-83
2024/02/23 01:12:33;;;;;;;8.60;1.60;;;;;;;;;;4896827;29;20201;-83
2024/02/23 01:15:00;;;;;;;11.80;1.60;;;;;;;;;;4896756;29;20659;-83
2024/02/23 01:17:27;;;;;;;10.03;1.40;;;;;;;;;;4896903;29;20225;-83
2024/02/23 01:19:56;;;;;;;9.90;1.40;;;;;;;;;;4896380;29;20208;-83
2024/02/23 01:22:23;;;;;;;8.47;1.40;;;;;;;;;;4896923;29;20626;-83
2024/02/23 01:24:51;;;;;;;8.40;1.20;;;;;;;;;;4896361;29;20257;-83
2024/02/23 01:27:18;;;;;;;7.10;1.43;;;;;;;;;;4896806;29;20237;-83
2024/02/23 01:29:45;;;;;;;8.67;1.50;;;;;;;;;;4896582;29;20205;-83
2024/02/23 01:32:12;;;;;;;10.53;1.83;;;;;;;;;;4897485;29;20228;-83
2024/02/23 01:34:40;;;;;;;7.30;1.37;;;;;;;;;;4895407;29;20671;-83
2024/02/23 01:37:08;;;;;;;8.37;1.30;;;;;;;;;;4892775;29;20626;-84
2024/02/23 01:39:36;;;;;;;8.87;1.50;;;;;;;;;;4878113;29;20293;-83
2024/02/23 01:42:03;;;;;;;9.93;1.40;;;;;;;;;;4877587;29;20291;-83
2024/02/23 01:44:30;;;;;;;8.73;1.33;;;;;;;;;;4877892;29;20293;-84
2024/02/23 01:46:57;;;;;;;12.90;1.90;;;;;;;;;;4877789;29;20264;-82
2024/02/23 01:49:31;;;;;;;8.47;1.63;;;;;;;;;;4877338;29;20216;-83
2024/02/23 01:51:58;;;;;;;6.03;1.80;;;;;;;;;;4877369;29;20438;-83
2024/02/23 01:54:28;;;;;;;12.40;1.80;;;;;;;;;;4877584;29;20285;-82
2024/02/23 01:56:55;;;;;;;10.83;2.07;;;;;;;;;;4878154;29;20198;-82
2024/02/23 01:59:22;;;;;;;7.20;1.50;;;;;;;;;;4877963;29;20201;-81
2024/02/23 02:01:50;;;;;;;9.67;1.77;;;;;;;;;;4877904;29;20309;-83
2024/02/23 02:04:17;;;;;;;9.93;1.70;;;;;;;;;;4877387;29;20232;-83
2024/02/23 02:06:44;;;;;;;10.40;1.53;;;;;;;;;;4877237;29;20240;-83
2024/02/23 02:09:11;;;;;;;8.23;1.53;;;;;;;;;;4877385;29;20623;-83
2024/02/23 02:11:48;;;;;;;7.03;1.40;;;;;;;;;;4877354;29;20763;-81
2024/02/23 02:14:15;;;;;;;9.27;1.50;;;;;;;;;;4877330;29;20248;-82
2024/02/23 02:16:43;;;;;;;11.80;1.17;;;;;;;;;;4877320;29;20213;-82
2024/02/23 02:19:10;;;;;;;11.43;1.50;;;;;;;;;;4877159;29;20289;-84
2024/02/23 02:21:38;;;;;;;6.13;1.10;;;;;;;;;;4877587;29;20202;-83
2024/02/23 02:24:06;;;;;;;5.77;1.20;;;;;;;;;;4877390;29;20296;-83
2024/02/23 02:26:33;;;;;;;11.37;1.43;;;;;;;;;;4877702;29;20285;-83
2024/02/23 02:29:02;;;;;;;8.40;1.40;;;;;;;;;;4877372;29;20663;-83
2024/02/23 02:31:29;;;;;;;7.70;1.20;;;;;;;;;;4877692;29;20647;-84
2024/02/23 02:33:56;;;;;;;9.10;1.77;;;;;;;;;;4876988;29;20257;-83
2024/02/23 02:36:23;;;;;;;13.33;1.40;;;;;;;;;;4877452;29;20214;-83
2024/02/23 02:38:50;;;;;;;6.77;1.40;;;;;;;;;;4877700;29;20296;-84
2024/02/23 02:41:19;;;;;;;9.20;1.40;;;;;;;;;;4873630;29;20210;-83
2024/02/23 02:43:46;;;;;;;6.97;1.20;;;;;;;;;;4872687;29;20213;-83
2024/02/23 02:46:15;;;;;;;7.90;1.20;;;;;;;;;;4881112;29;20691;-83
2024/02/23 02:48:42;;;;;;;9.07;1.43;;;;;;;;;;4880290;29;20288;-84
2024/02/23 02:51:09;;;;;;;8.23;1.37;;;;;;;;;;4880629;29;21220;-84
2024/02/23 02:53:36;;;;;;;7.20;1.40;;;;;;;;;;4880906;29;20245;-83
2024/02/23 02:56:07;;;;;;;7.90;1.30;;;;;;;;;;4880880;29;20218;-83
2024/02/23 02:58:34;;;;;;;5.20;1.03;;;;;;;;;;4880230;29;20205;-84
2024/02/23 03:01:01;;;;;;;4.33;1.07;;;;;;;;;;4879744;29;20634;-83
2024/02/23 03:03:30;;;;;;;7.80;1.20;;;;;;;;;;4880674;29;20254;-84
2024/02/23 03:05:57;;;;;;;10.30;1.27;;;;;;;;;;4880789;29;20291;-82
2024/02/23 03:08:24;;;;;;;9.57;1.23;;;;;;;;;;4880498;29;20233;-83
2024/02/23 03:10:52;;;;;;;13.33;1.63;;;;;;;;;;4880774;29;20656;-82
2024/02/23 03:13:19;;;;;;;9.33;1.30;;;;;;;;;;4880915;29;20240;-83
2024/02/23 03:15:46;;;;;;;6.27;1.23;;;;;;;;;;4879946;29;20237;-82
2024/02/23 03:18:14;;;;;;;9.70;1.00;;;;;;;;;;4880180;29;20667;-83
2024/02/23 03:20:43;;;;;;;10.27;1.30;;;;;;;;;;4880227;29;20202;-83
2024/02/23 03:23:10;;;;;;;9.53;1.30;;;;;;;;;;4880813;29;20212;-83
2024/02/23 03:25:38;;;;;;;5.33;0.80;;;;;;;;;;4880480;29;20229;-83
2024/02/23 03:28:05;;;;;;;8.20;1.53;;;;;;;;;;4880350;29;20290;-82
2024/02/23 03:30:32;;;;;;;7.73;1.30;;;;;;;;;;4879846;29;20803;-81
2024/02/23 03:32:59;;;;;;;7.07;1.03;;;;;;;;;;4880333;29;20654;-83
2024/02/23 03:35:27;;;;;;;4.87;1.10;;;;;;;;;;4880168;29;20202;-83
2024/02/23 03:37:55;;;;;;;8.37;1.67;;;;;;;;;;4879931;29;20257;-82
2024/02/23 03:40:23;;;;;;;7.10;1.20;;;;;;;;;;4879950;29;20600;-83
2024/02/23 03:42:50;;;;;;;7.10;1.13;;;;;;;;;;4879865;29;20244;-83
2024/02/23 03:45:17;;;;;;;10.37;1.17;;;;;;;;;;4879822;29;20239;-82
2024/02/23 03:47:44;;;;;;;9.87;1.20;;;;;;;;;;4880097;29;20313;-83
2024/02/23 03:50:12;;;;;;;8.87;1.33;;;;;;;;;;4880357;29;20743;-83
2024/02/23 03:52:39;;;;;;;9.07;1.37;;;;;;;;;;4879018;29;20198;-84
2024/02/23 03:55:08;;;;;;;8.23;1.40;;;;;;;;;;4879700;29;20671;-82
2024/02/23 03:57:36;;;;;;;7.33;1.37;;;;;;;;;;4879858;29;20202;-83
2024/02/23 04:00:03;;;;;;;9.47;1.50;;;;;;;;;;4879092;29;20231;-83
2024/02/23 04:02:31;;;;;;;8.30;1.20;;;;;;;;;;4879709;29;20265;-82
2024/02/23 04:04:58;;;;;;;9.10;1.47;;;;;;;;;;4879246;29;20206;-83
2024/02/23 04:07:25;;;;;;;8.63;1.30;;;;;;;;;;4879367;29;20273;-83
2024/02/23 04:09:55;;;;;;;10.33;1.17;;;;;;;;;;4879542;29;20206;-83
2024/02/23 04:12:24;;;;;;;8.47;1.10;;;;;;;;;;4879743;29;20221;-83
2024/02/23 04:14:51;;;;;;;8.80;1.33;;;;;;;;;;4880069;29;20297;-83
2024/02/23 04:17:18;;;;;;;10.43;2.17;;;;;;;;;;4897896;29;20312;-84
2024/02/23 04:19:46;;;;;;;8.30;1.00;;;;;;;;;;4898067;29;20216;-83
2024/02/23 04:22:13;;;;;;;8.90;1.30;;;;;;;;;;4898648;29;20213;-84
2024/02/23 04:24:41;;;;;;;10.43;1.40;;;;;;;;;;4897886;29;20241;-84
2024/02/23 04:27:08;;;;;;;9.20;1.53;;;;;;;;;;4897796;29;20325;-83
2024/02/23 04:29:37;;;;;;;8.43;1.60;;;;;;;;;;4897601;29;20655;-83
2024/02/23 04:32:04;;;;;;;10.87;1.43;;;;;;;;;;4897875;29;20292;-83
2024/02/23 04:34:32;;;;;;;7.63;1.63;;;;;;;;;;4897380;29;20751;-83
2024/02/23 04:36:59;;;;;;;9.73;1.73;;;;;;;;;;4895218;29;20210;-83
2024/02/23 04:39:26;;;;;;;10.13;2.00;;;;;;;;;;4878920;29;20305;-84
2024/02/23 04:41:53;;;;;;;11.97;2.17;;;;;;;;;;4878844;29;20261;-83
2024/02/23 04:44:21;;;;;;;9.47;2.40;;;;;;;;;;4878744;29;20277;-83
2024/02/23 04:46:49;;;;;;;8.60;2.27;;;;;;;;;;4878714;29;20237;-82
2024/02/23 04:49:16;;;;;;;9.07;2.20;;;;;;;;;;4878594;29;20234;-81
2024/02/23 04:51:44;;;;;;;9.97;1.77;;;;;;;;;;4878349;29;20333;-83
2024/02/23 04:54:12;;;;;;;11.27;1.90;;;;;;;;;;4878452;29;20297;-85
2024/02/23 04:56:39;;;;;;;7.00;1.67;;;;;;;;;;4878710;29;20248;-85
2024/02/23 04:59:06;;;;;;;7.60;1.30;;;;;;;;;;4878446;29;20214;-84
2024/02/23 05:01:37;;;;;;;8.20;1.60;;;;;;;;;;4878896;29;20241;-83
2024/02/23 05:04:06;;;;;;;4.93;1.83;;;;;;;;;;4878071;29;20210;-84
2024/02/23 05:06:33;;;;;;;8.63;2.03;;;;;;;;;;4878293;29;20301;-84
2024/02/23 05:09:00;;;;;;;7.50;1.17;;;;;;;;;;4878426;29;20321;-83
2024/02/23 05:11:27;;;;;;;7.33;1.20;;;;;;;;;;4878317;29;20233;-83
2024/02/23 05:13:54;;;;;;;5.37;1.10;;;;;;;;;;4878822;29;20613;-83
2024/02/23 05:16:22;;;;;;;7.07;1.50;;;;;;;;;;4878569;29;20671;-83
2024/02/23 05:18:50;;;;;;;6.80;1.30;;;;;;;;;;4878487;29;20209;-83
2024/02/23 05:21:18;;;;;;;6.80;1.57;;;;;;;;;;4878291;29;20708;-83
2024/02/23 05:23:46;;;;;;;5.50;1.00;;;;;;;;;;4878080;29;20245;-84
2024/02/23 05:26:13;;;;;;;8.23;1.50;;;;;;;;;;4878443;29;20293;-82
2024/02/23 05:28:40;;;;;;;5.97;1.30;;;;;;;;;;4877568;29;20616;-84
2024/02/23 05:31:08;;;;;;;7.03;1.33;;;;;;;;;;4878309;29;20290;-82
2024/02/23 05:33:35;;;;;;;4.43;1.07;;;;;;;;;;4878100;29;20244;-83
2024/02/23 05:36:02;;;;;;;7.90;1.17;;;;;;;;;;4878309;29;20202;-84
2024/02/23 05:38:31;;;;;;;6.47;1.03;;;;;;;;;;4877801;29;20305;-84
2024/02/23 05:40:58;;;;;;;6.03;1.10;;;;;;;;;;4878009;29;20202;-83
2024/02/23 05:43:25;;;;;;;5.67;1.60;;;;;;;;;;4878065;29;20209;-84
2024/02/23 05:45:54;;;;;;;8.13;1.43;;;;;;;;;;4878012;29;20206;-83
2024/02/23 05:48:21;;;;;;;6.60;1.50;;;;;;;;;;4877871;29;20657;-84
2024/02/23 05:50:48;;;;;;;8.13;1.57;;;;;;;;;;4878022;29;20325;-84
2024/02/23 05:53:15;;;;;;;6.17;1.50;;;;;;;;;;4877662;29;20261;-84
2024/02/23 05:55:44;;;;;;;6.33;1.50;;;;;;;;;;4877640;29;20265;-83
2024/02/23 05:58:13;;;;;;;4.33;1.40;;;;;;;;;;4878505;29;20265;-85
2024/02/23 06:00:40;;;;;;;5.37;1.23;;;;;;;;;;4877820;29;20213;-84
2024/02/23 06:03:08;;;;;;;8.43;1.50;;;;;;;;;;4877639;29;20250;-84
2024/02/23 06:05:35;;;;;;;5.17;1.67;;;;;;;;;;4877712;29;20237;-84
2024/02/23 06:08:02;;;;;;;11.17;1.40;;;;;;;;;;4878017;29;20269;-84
2024/02/23 06:10:30;;;;;;;8.63;1.30;;;;;;;;;;4889728;29;20583;-85
2024/02/23 06:13:00;;;;;;;7.40;1.23;;;;;;;;;;4896684;29;20593;-85
2024/02/23 06:15:28;;;;;;;5.30;1.00;;;;;;;;;;4896501;29;20215;-84
2024/02/23 06:17:55;;;;;;;4.10;1.20;;;;;;;;;;4899824;29;20726;-85
2024/02/23 06:20:22;;;;;;;7.80;1.50;;;;;;;;;;4900307;29;20245;-84
2024/02/23 06:22:49;;;;;;;6.20;1.30;;;;;;;;;;4900407;29;20293;-85
2024/02/23 06:25:17;;;;;;;7.47;1.30;;;;;;;;;;4900570;29;20243;-85
2024/02/23 06:27:44;;;;;;;6.27;1.17;;;;;;;;;;4900776;29;20256;-83
2024/02/23 06:30:13;;;;;;;8.10;1.30;;;;;;;;;;4900209;29;20225;-83
2024/02/23 06:32:40;;;;;;;5.37;1.20;;;;;;;;;;4900539;29;20237;-81
2024/02/23 06:35:08;;;;;;;3.90;1.00;;;;;;;;;;4900174;29;20293;-85
2024/02/23 06:37:36;;;;;;;6.17;1.50;;;;;;;;;;4893114;29;20241;-85
2024/02/23 06:40:04;;;;;;;5.30;1.67;;;;;;;;;;4883137;29;20298;-83
2024/02/23 06:42:31;;;;;;;4.43;1.23;;;;;;;;;;4887900;29;20213;-83
2024/02/23 06:44:58;;;;;;;7.00;1.60;;;;;;;;;;4890633;29;20198;-81
2024/02/23 06:47:27;;;;;;;8.17;1.50;;;;;;;;;;4894931;29;20292;-83
2024/02/23 06:49:54;;;;;;;8.37;1.80;;;;;;;;;;4893964;29;20292;-83
2024/02/23 06:52:23;;;;;;;6.40;2.07;;;;;;;;;;4852949;29;20294;-83
2024/02/23 06:54:50;;;;;;;8.53;1.93;;;;;;;;;;4873689;29;20217;-83
2024/02/23 06:57:17;;;;;;;10.00;2.43;;;;;;;;;;4867588;29;20233;-83
2024/02/23 06:59:44;;;;;;;11.33;4.03;;;;;;;;;;4869395;29;20308;-82
2024/02/23 07:02:12;;;;;;;13.90;3.37;;;;;;;;;;4880492;29;20241;-81
2024/02/23 07:04:40;;;;;;;10.97;2.50;;;;;;;;;;4880006;29;20244;-82
2024/02/23 07:07:08;;;;;;;7.93;2.37;;;;;;;;;;4879927;29;20237;-83
2024/02/23 07:09:35;;;;;;;5.07;1.67;;;;;;;;;;4880947;29;20229;-82
2024/02/23 07:12:02;;;;;;;4.77;1.50;;;;;;;;;;4880744;29;20309;-83
2024/02/23 07:14:29;;;;;;;5.93;1.27;;;;;;;;;;4880105;29;20206;-82
2024/02/23 07:16:57;;;;;;;6.77;1.47;;;;;;;;;;4880151;29;20221;-83
2024/02/23 07:19:24;;;;;;;4.30;1.47;;;;;;;;;;4880417;29;20250;-83
2024/02/23 07:21:52;;;;;;;7.27;1.40;;;;;;;;;;4880212;29;20285;-83
2024/02/23 07:24:19;;;;;;;6.83;1.67;;;;;;;;;;4879271;29;20680;-81
2024/02/23 07:26:47;;;;;;;5.83;1.53;;;;;;;;;;4880033;29;20225;-82
2024/02/23 07:29:14;;;;;;;4.17;1.27;;;;;;;;;;4879390;29;20328;-82
2024/02/23 07:31:41;;;;;;;5.37;1.50;;;;;;;;;;4879701;29;20287;-83
2024/02/23 07:34:08;;;;;;;4.07;1.40;;;;;;;;;;4879820;29;20234;-83
2024/02/23 07:36:35;;;;;;;6.60;0.97;;;;;;;;;;4879609;29;20226;-83
2024/02/23 07:39:04;;;;;;;10.07;2.23;;;;;;;;;;4879910;29;20217;-83
2024/02/23 07:41:31;;;;;;;3.63;1.40;;;;;;;;;;4879859;29;20230;-83
2024/02/23 07:43:59;;;;;;;5.00;1.80;;;;;;;;;;4879558;29;20210;-83
2024/02/23 07:46:26;;;;;;;7.17;1.43;;;;;;;;;;4879164;29;20242;-83
2024/02/23 07:48:54;;;;;;;7.07;1.40;;;;;;;;;;4879673;29;20285;-83
2024/02/23 07:51:21;;;;;;;5.63;1.00;;;;;;;;;;4878944;29;20246;-83
2024/02/23 07:53:48;;;;;;;7.00;2.20;;;;;;;;;;4879227;29;20241;-82
2024/02/23 07:56:17;;;;;;;4.17;1.60;;;;;;;;;;4879791;29;20229;-82
2024/02/23 07:58:44;;;;;;;5.90;1.37;;;;;;;;;;4879365;29;20213;-82
2024/02/23 08:01:11;;;;;;;5.50;1.73;;;;;;;;;;4878775;29;20296;-83
2024/02/23 08:03:39;;;;;;;5.20;1.27;;;;;;;;;;4879017;29;20310;-83
2024/02/23 08:06:06;;;;;;;3.37;1.43;;;;;;;;;;4878824;29;20294;-83
2024/02/23 08:08:34;;;;;;;3.03;1.23;;;;;;;;;;4878897;29;20341;-83
2024/02/23 08:11:02;;;;;;;3.53;1.30;;;;;;;;;;4891073;29;20216;-82
2024/02/23 08:13:30;;;;;;;3.47;1.07;;;;;;;;;;4897510;29;20197;-83
2024/02/23 08:15:58;;;;;;;2.63;1.37;;;;;;;;;;4890667;29;20783;-82
2024/02/23 08:18:26;;;;;;;3.73;1.00;;;;;;;;;;4878942;29;20262;-81
2024/02/23 08:20:53;;;;;;;3.77;1.60;;;;;;;;;;4878773;29;20295;-82
2024/02/23 08:23:22;;;;;;;3.47;1.23;;;;;;;;;;4879159;29;20205;-83
2024/02/23 08:25:50;;;;;;;3.97;1.47;;;;;;;;;;4878933;29;20212;-83
2024/02/23 08:28:17;;;;;;;2.87;0.80;;;;;;;;;;4878886;29;20316;-83
2024/02/23 08:30:46;;;;;;;4.87;1.10;;;;;;;;;;4878736;29;20563;-83
2024/02/23 08:33:13;;;;;;;4.03;1.17;;;;;;;;;;4878644;29;20206;-83
2024/02/23 08:35:41;;;;;;;2.83;1.10;;;;;;;;;;4879079;29;20297;-84
2024/02/23 08:38:08;;;;;;;3.70;1.30;;;;;;;;;;4878895;29;20229;-83
2024/02/23 08:40:36;;;;;;;4.20;0.87;;;;;;;;;;4878065;29;20232;-83
2024/02/23 08:43:04;;;;;;;1.90;0.90;;;;;;;;;;4878968;29;20202;-84
2024/02/23 08:45:31;;;;;;;3.17;1.47;;;;;;;;;;4878897;29;20289;-83
2024/02/23 08:47:59;;;;;;;4.57;0.80;;;;;;;;;;4878496;29;20288;-82
2024/02/23 08:50:26;;;;;;;2.37;0.97;;;;;;;;;;4877642;29;20730;-82
2024/02/23 08:52:54;;;;;;;3.10;0.90;;;;;;;;;;4878169;29;20626;-81
2024/02/23 08:55:21;;;;;;;3.33;0.90;;;;;;;;;;4878757;29;20244;-81
2024/02/23 08:57:48;;;;;;;4.33;1.20;;;;;;;;;;4876339;29;20198;-81
2024/02/23 09:00:16;;;;;;;2.87;0.67;;;;;;;;;;4869479;29;20210;-81
2024/02/23 09:02:43;;;;;;;4.53;0.90;;;;;;;;;;4859564;29;20210;-81
2024/02/23 09:05:12;;;;;;;4.27;0.90;;;;;;;;;;4859355;29;20206;-82
2024/02/23 09:07:39;;;;;;;3.93;1.27;;;;;;;;;;4859752;29;20285;-81
2024/02/23 09:10:06;;;;;;;3.50;1.10;;;;;;;;;;4860106;29;20262;-81
2024/02/23 09:12:33;;;;;;;5.03;1.10;;;;;;;;;;4867364;29;20233;-81
2024/02/23 09:15:01;;;;;;;3.73;0.73;;;;;;;;;;4878292;29;20653;-80
2024/02/23 09:17:28;;;;;;;3.27;1.00;;;;;;;;;;4878642;29;20288;-81
2024/02/23 09:19:55;;;;;;;7.13;1.20;;;;;;;;;;4877206;29;20262;-82
2024/02/23 09:22:24;;;;;;;5.40;0.90;;;;;;;;;;4877911;29;20767;-80
2024/02/23 09:24:52;;;;;;;2.97;0.90;;;;;;;;;;4878122;29;20735;-82
2024/02/23 09:27:22;;;;;;;3.00;0.50;;;;;;;;;;4878503;29;20210;-81
2024/02/23 09:29:49;;;;;;;2.67;0.73;;;;;;;;;;4877812;29;20328;-81
2024/02/23 09:32:16;;;;;;;3.80;1.00;;;;;;;;;;4877849;29;20202;-80
2024/02/23 09:34:43;;;;;;;4.50;1.00;;;;;;;;;;4877460;29;20289;-81
2024/02/23 09:37:10;;;;;;;3.87;0.90;;;;;;;;;;4877737;29;20647;-82
2024/02/23 09:39:39;;;;;;;2.87;0.70;;;;;;;;;;4877645;29;20202;-80
2024/02/23 09:42:08;;;;;;;4.17;1.10;;;;;;;;;;4878308;29;20292;-81
2024/02/23 09:44:37;;;;;;;3.67;1.10;;;;;;;;;;4876993;29;20213;-81
2024/02/23 09:47:08;;;;;;;3.53;0.70;;;;;;;;;;4877055;29;20209;-82
2024/02/23 09:49:36;;;;;;;4.77;1.10;;;;;;;;;;4877533;29;20667;-81
2024/02/23 09:52:03;;;;;;;6.03;2.00;;;;;;;;;;4877241;29;20328;-81
2024/02/23 09:54:31;;;;;;;4.27;1.10;;;;;;;;;;4877300;29;20210;-81
2024/02/23 09:56:59;;;;;;;4.60;1.10;;;;;;;;;;4877538;29;20202;-81
2024/02/23 09:59:28;;;;;;;4.57;0.90;;;;;;;;;;4877840;29;20210;-80
2024/02/23 10:01:55;;;;;;;2.60;0.83;;;;;;;;;;4877192;29;20212;-81
2024/02/23 10:04:22;;;;;;;4.70;1.10;;;;;;;;;;4877398;29;20284;-82
2024/02/23 10:06:49;;;;;;;3.93;1.30;;;;;;;;;;4877863;29;20201;-81
2024/02/23 10:09:17;;;;;;;4.23;0.93;;;;;;;;;;4877137;29;20595;-81
2024/02/23 10:11:45;;;;;;;4.30;1.30;;;;;;;;;;4877429;29;20206;-81
2024/02/23 10:14:14;;;;;;;4.57;1.13;;;;;;;;;;4877800;29;20289;-80
2024/02/23 10:16:41;;;;;;;5.07;1.50;;;;;;;;;;4876653;29;20241;-81
2024/02/23 10:19:08;;;;;;;4.00;1.50;;;;;;;;;;4877585;29;20206;-82
2024/02/23 10:21:35;;;;;;;4.43;1.20;;;;;;;;;;4877619;29;20216;-82
2024/02/23 10:24:03;;;;;;;5.27;1.00;;;;;;;;;;4877288;29;20248;-82
2024/02/23 10:26:30;;;;;;;4.13;1.10;;;;;;;;;;4877671;29;20687;-81
2024/02/23 10:28:58;;;;;;;3.53;0.90;;;;;;;;;;4876531;29;20728;-81
2024/02/23 10:31:27;;;;;;;2.90;0.97;;;;;;;;;;4876734;29;20691;-81
2024/02/23 10:33:56;;;;;;;4.00;1.10;;;;;;;;;;4877494;29;20650;-81
2024/02/23 10:36:24;;;;;;;4.50;1.20;;;;;;;;;;4876827;29;20201;-82
2024/02/23 10:38:54;;;;;;;5.03;1.00;;;;;;;;;;4876777;29;20221;-81
2024/02/23 10:41:22;;;;;;;3.83;1.10;;;;;;;;;;4876773;29;20658;-82
2024/02/23 10:43:51;;;;;;;3.47;0.90;;;;;;;;;;4877038;29;20735;-80
2024/02/23 10:46:20;;;;;;;4.70;1.20;;;;;;;;;;4876161;29;20292;-82
2024/02/23 10:48:50;;;;;;;2.63;1.00;;;;;;;;;;4877084;29;20210;-82
2024/02/23 10:51:17;;;;;;;4.97;0.80;;;;;;;;;;4876785;29;20923;-79
2024/02/23 10:53:46;;;;;;;4.90;1.57;;;;;;;;;;4876676;29;20296;-80
2024/02/23 10:56:13;;;;;;;3.70;1.20;;;;;;;;;;4876973;29;20654;-80
2024/02/23 10:58:40;;;;;;;3.23;0.90;;;;;;;;;;4877043;29;20212;-81
2024/02/23 11:01:08;;;;;;;2.30;1.00;;;;;;;;;;4876229;29;20293;-81
2024/02/23 11:03:37;;;;;;;6.90;1.63;;;;;;;;;;4879123;29;20202;-80
2024/02/23 11:06:07;;;;;;;3.07;1.00;;;;;;;;;;4879976;29;20229;-80
2024/02/23 11:08:36;;;;;;;3.10;1.23;;;;;;;;;;4880395;29;20258;-83
2024/02/23 11:11:08;;;;;;;2.07;0.90;;;;;;;;;;4880020;29;20233;-82
2024/02/23 11:13:36;;;;;;;2.17;0.87;;;;;;;;;;4880190;29;20644;-83
2024/02/23 11:16:04;;;;;;;4.80;1.37;;;;;;;;;;4878704;29;20236;-83
2024/02/23 11:18:32;;;;;;;3.27;0.83;;;;;;;;;;4882274;29;20206;-83
2024/02/23 11:21:01;;;;;;;3.50;1.30;;;;;;;;;;4879607;29;20194;-84
2024/02/23 11:23:40;;;;;;;2.30;0.90;;;;;;;;;;4879263;29;20217;-84
2024/02/23 11:26:08;;;;;;;3.90;0.70;;;;;;;;;;4879301;29;20290;-83
2024/02/23 11:28:43;;;;;;;4.73;1.07;;;;;;;;;;4878606;29;20202;-83
2024/02/23 11:31:13;;;;;;;1.70;0.80;;;;;;;;;;4878781;29;20256;-82
2024/02/23 11:33:40;;;;;;;2.97;0.80;;;;;;;;;;4879285;29;20225;-81
2024/02/23 11:36:08;;;;;;;2.93;0.90;;;;;;;;;;4879336;29;20629;-82
2024/02/23 11:38:37;;;;;;;2.73;1.20;;;;;;;;;;4876412;29;20226;-82
2024/02/23 11:41:04;;;;;;;4.37;1.10;;;;;;;;;;4878587;29;20654;-82
2024/02/23 11:43:31;;;;;;;4.20;0.90;;;;;;;;;;4878646;29;20277;-82
2024/02/23 11:45:58;;;;;;;2.83;0.80;;;;;;;;;;4877643;29;20281;-81
2024/02/23 11:48:26;;;;;;;2.90;0.90;;;;;;;;;;4878522;29;20296;-81
2024/02/23 11:50:53;;;;;;;2.73;0.97;;;;;;;;;;4881780;29;20237;-82
2024/02/23 11:53:21;;;;;;;2.67;0.90;;;;;;;;;;4887884;29;20693;-82
2024/02/23 11:55:50;;;;;;;2.93;0.80;;;;;;;;;;4888935;29;20198;-81
2024/02/23 11:58:18;;;;;;;3.63;1.00;;;;;;;;;;4885038;29;20246;-81
2024/02/23 12:00:45;;;;;;;2.50;1.10;;;;;;;;;;4887032;29;20223;-81
2024/02/23 12:03:12;;;;;;;3.53;0.90;;;;;;;;;;4888013;29;20702;-80
2024/02/23 12:05:40;;;;;;;4.97;0.97;;;;;;;;;;4887332;29;20289;-80
2024/02/23 12:08:07;;;;;;;2.97;1.10;;;;;;;;;;4886702;29;20239;-81
2024/02/23 12:10:34;;;;;;;4.10;0.87;;;;;;;;;;4887876;29;20225;-80
2024/02/23 12:13:03;;;;;;;2.43;0.63;;;;;;;;;;4879047;29;20212;-79
2024/02/23 12:15:30;;;;;;;5.13;0.73;;;;;;;;;;4878375;29;20288;-80
2024/02/23 12:18:00;;;;;;;3.17;0.87;;;;;;;;;;4878493;29;20682;-81
2024/02/23 12:20:27;;;;;;;3.40;1.80;;;;;;;;;;4878806;29;20216;-80
2024/02/23 12:22:56;;;;;;;6.57;2.60;;;;;;;;;;4879000;29;20751;-80
2024/02/23 12:25:24;;;;;;;7.23;2.97;;;;;;;;;;4878968;29;20556;-80
2024/02/23 12:27:56;;;;;;;3.30;1.70;;;;;;;;;;4883815;29;20281;-80
2024/02/23 12:30:26;;;;;;;3.93;1.40;;;;;;;;;;4889482;29;20236;-79
2024/02/23 12:32:53;;;;;;;2.83;0.90;;;;;;;;;;4896910;29;20197;-79
2024/02/23 12:35:21;;;;;;;4.97;2.17;;;;;;;;;;4897027;29;20232;-80
2024/02/23 12:37:49;;;;;;;3.97;1.80;;;;;;;;;;4882058;29;20738;-81
2024/02/23 12:40:16;;;;;;;9.43;3.20;;;;;;;;;;4897027;29;20720;-80
2024/02/23 12:42:44;;;;;;;8.23;3.73;;;;;;;;;;4894477;29;20705;-80
2024/02/23 12:45:11;;;;;;;4.03;1.60;;;;;;;;;;4886329;29;20197;-80
2024/02/23 12:47:40;;;;;;;4.57;1.43;;;;;;;;;;4896963;29;20290;-80
2024/02/23 12:50:08;;;;;;;3.83;1.70;;;;;;;;;;4896765;29;20248;-80
2024/02/23 12:52:35;;;;;;;5.37;1.00;;;;;;;;;;4888297;29;20667;-81
2024/02/23 12:55:02;;;;;;;3.67;0.90;;;;;;;;;;4878750;29;20289;-80
2024/02/23 12:57:29;;;;;;;1.63;0.80;;;;;;;;;;4890951;29;20201;-80
2024/02/23 12:59:57;;;;;;;4.53;0.90;;;;;;;;;;4896490;29;20280;-80
2024/02/23 13:02:24;;;;;;;3.17;1.07;;;;;;;;;;4896333;29;20288;-79
2024/02/23 13:04:53;;;;;;;4.30;1.10;;;;;;;;;;4891825;29;20289;-79
2024/02/23 13:07:20;;;;;;;3.87;1.20;;;;;;;;;;4897021;29;20288;-80
2024/02/23 13:09:47;;;;;;;3.57;1.10;;;;;;;;;;4885231;29;20222;-80
2024/02/23 13:12:14;;;;;;;3.30;0.90;;;;;;;;;;4877926;29;20245;-80
2024/02/23 13:14:41;;;;;;;3.27;1.30;;;;;;;;;;4878214;29;20210;-80
2024/02/23 13:17:09;;;;;;;4.30;1.70;;;;;;;;;;4877778;29;20229;-80
2024/02/23 13:19:36;;;;;;;5.87;1.27;;;;;;;;;;4886661;29;20244;-81
2024/02/23 13:22:04;;;;;;;4.30;1.00;;;;;;;;;;4896452;29;20225;-81
2024/02/23 13:24:31;;;;;;;6.00;1.03;;;;;;;;;;4883119;29;20652;-79
2024/02/23 13:26:58;;;;;;;7.10;1.00;;;;;;;;;;4878055;29;20202;-80
2024/02/23 13:29:25;;;;;;;3.27;1.47;;;;;;;;;;4877847;29;20206;-81
2024/02/23 13:31:52;;;;;;;5.20;1.57;;;;;;;;;;4877493;29;20245;-80
2024/02/23 13:34:19;;;;;;;5.20;1.80;;;;;;;;;;4888257;29;20292;-81
2024/02/23 13:36:47;;;;;;;5.37;1.50;;;;;;;;;;4891242;29;20229;-81
2024/02/23 13:39:15;;;;;;;4.57;2.60;;;;;;;;;;4881775;29;20217;-81
2024/02/23 13:41:43;;;;;;;4.97;1.30;;;;;;;;;;4890161;29;20236;-80
2024/02/23 13:44:10;;;;;;;4.67;1.33;;;;;;;;;;4896174;29;20198;-79
2024/02/23 13:46:39;;;;;;;2.27;0.90;;;;;;;;;;4896107;29;20733;-81
2024/02/23 13:49:08;;;;;;;4.00;0.97;;;;;;;;;;4895585;29;20193;-81
2024/02/23 13:51:36;;;;;;;4.73;1.00;;;;;;;;;;4892557;29;20240;-79
2024/02/23 13:54:03;;;;;;;2.57;1.07;;;;;;;;;;4895728;29;20288;-81
2024/02/23 13:56:32;;;;;;;5.23;0.90;;;;;;;;;;4880206;29;20208;-81
2024/02/23 13:58:59;;;;;;;3.27;0.80;;;;;;;;;;4885743;29;20786;-80
2024/02/23 14:01:26;;;;;;;3.63;0.80;;;;;;;;;;4883753;29;20296;-81
2024/02/23 14:03:53;;;;;;;2.13;0.73;;;;;;;;;;4895610;29;20205;-81
2024/02/23 14:06:21;;;;;;;3.17;0.77;;;;;;;;;;4895863;29;20208;-82
2024/02/23 14:08:48;;;;;;;2.17;0.70;;;;;;;;;;4895056;29;20300;-81
2024/02/23 14:11:15;;;;;;;2.03;0.63;;;;;;;;;;4896135;29;20239;-81
2024/02/23 14:13:44;;;;;;;3.90;0.80;;;;;;;;;;4895505;29;20231;-81
2024/02/23 14:16:11;;;;;;;2.70;0.90;;;;;;;;;;4895632;29;20205;-80
2024/02/23 14:18:42;;;;;;;3.40;0.90;;;;;;;;;;4895402;29;20209;-79
2024/02/23 14:21:10;;;;;;;2.73;0.93;;;;;;;;;;4895549;29;20279;-81
2024/02/23 14:23:37;;;;;;;2.73;0.90;;;;;;;;;;4887078;29;20724;-80
2024/02/23 14:26:04;;;;;;;5.10;1.17;;;;;;;;;;4877057;29;20586;-81
2024/02/23 14:28:32;;;;;;;3.90;1.47;;;;;;;;;;4875846;29;20574;-81
2024/02/23 14:31:01;;;;;;;7.33;1.30;;;;;;;;;;4891881;29;20243;-80
2024/02/23 14:33:28;;;;;;;3.87;1.00;;;;;;;;;;4895410;29;20291;-81
2024/02/23 14:35:55;;;;;;;5.40;1.23;;;;;;;;;;4895183;29;20229;-80
2024/02/23 14:38:22;;;;;;;4.63;1.17;;;;;;;;;;4882640;29;20205;-81
2024/02/23 14:40:50;;;;;;;5.67;1.47;;;;;;;;;;4899630;29;20689;-81
2024/02/23 14:43:17;;;;;;;3.87;1.37;;;;;;;;;;4899024;29;20207;-81
2024/02/23 14:45:44;;;;;;;6.70;1.63;;;;;;;;;;4899089;29;20201;-81